sensor_id;sensor_type;location;lat;lon;timestamp;pressure;altitude;pressure_sealevel;temperature;humidity
9439;BME280;5176;42.622;25.386;2023-04-05T20:24:22;96878.72;;;7.87;80.35
9439;BME280;5176;42.622;25.386;2023-04-05T20:26:52;96883.09;;;7.87;79.24
9439;BME280;5176;42.622;25.386;2023-04-05T20:29:24;96886.91;;;7.81;77.75
9439;BME280;5176;42.622;25.386;2023-04-05T20:31:54;96890.72;;;7.76;78.49
9439;BME280;5176;42.622;25.386;2023-04-05T20:34:27;96886.13;;;7.65;77.28
9439;BME280;5176;42.622;25.386;2023-04-05T20:36:57;96891.88;;;7.56;77.78
9439;BME280;5176;42.622;25.386;2023-04-05T20:39:29;96887.06;;;7.48;77.90
9439;BME280;5176;42.622;25.386;2023-04-05T20:41:58;96873.00;;;7.36;78.85
9439;BME280;5176;42.622;25.386;2023-04-05T20:44:26;96878.34;;;7.33;78.11
9439;BME280;5176;42.622;25.386;2023-04-05T20:46:56;96879.88;;;7.37;79.02
9439;BME280;5176;42.622;25.386;2023-04-05T20:49:25;96892.41;;;7.31;78.43
9439;BME280;5176;42.622;25.386;2023-04-05T20:51:54;96883.50;;;7.19;78.98
9439;BME280;5176;42.622;25.386;2023-04-05T20:54:23;96884.34;;;7.20;79.38
9439;BME280;5176;42.622;25.386;2023-04-05T20:56:53;96888.47;;;7.08;78.86
9439;BME280;5176;42.622;25.386;2023-04-05T20:59:22;96887.91;;;7.03;79.78
9439;BME280;5176;42.622;25.386;2023-04-05T21:01:52;96885.53;;;6.98;80.29
9439;BME280;5176;42.622;25.386;2023-04-05T21:04:20;96878.91;;;6.93;80.68
9439;BME280;5176;42.622;25.386;2023-04-05T21:06:49;96884.28;;;6.90;80.78
9439;BME280;5176;42.622;25.386;2023-04-05T21:09:18;96878.16;;;6.91;81.26
9439;BME280;5176;42.622;25.386;2023-04-05T21:11:47;96877.97;;;6.94;81.92
9439;BME280;5176;42.622;25.386;2023-04-05T21:14:17;96890.84;;;6.97;80.87
9439;BME280;5176;42.622;25.386;2023-04-05T21:16:46;96887.13;;;7.01;79.55
9439;BME280;5176;42.622;25.386;2023-04-05T21:19:15;96880.00;;;7.04;81.17
9439;BME280;5176;42.622;25.386;2023-04-05T21:21:44;96877.72;;;7.14;81.15
9439;BME280;5176;42.622;25.386;2023-04-05T21:24:13;96879.97;;;7.20;80.06
9439;BME280;5176;42.622;25.386;2023-04-05T21:26:42;96879.63;;;7.26;78.69
9439;BME280;5176;42.622;25.386;2023-04-05T21:29:10;96879.63;;;7.26;79.44
9439;BME280;5176;42.622;25.386;2023-04-05T21:31:42;96863.25;;;7.24;80.43
9439;BME280;5176;42.622;25.386;2023-04-05T21:34:11;96879.69;;;7.41;80.78
9439;BME280;5176;42.622;25.386;2023-04-05T21:36:40;96877.00;;;7.42;80.19
9439;BME280;5176;42.622;25.386;2023-04-05T21:39:09;96886.25;;;7.48;78.22
9439;BME280;5176;42.622;25.386;2023-04-05T21:41:37;96874.97;;;7.47;77.27
9439;BME280;5176;42.622;25.386;2023-04-05T21:44:06;96886.81;;;7.53;77.61
9439;BME280;5176;42.622;25.386;2023-04-05T21:46:35;96883.97;;;7.57;77.70
9439;BME280;5176;42.622;25.386;2023-04-05T21:49:05;96892.53;;;7.59;78.24
9439;BME280;5176;42.622;25.386;2023-04-05T21:51:34;96890.84;;;7.58;75.61
9439;BME280;5176;42.622;25.386;2023-04-05T21:54:03;96884.06;;;7.56;76.30
9439;BME280;5176;42.622;25.386;2023-04-05T21:56:33;96886.38;;;7.60;77.60
9439;BME280;5176;42.622;25.386;2023-04-05T21:59:02;96888.25;;;7.58;77.56
9439;BME280;5176;42.622;25.386;2023-04-05T22:01:31;96888.06;;;7.61;76.43
9439;BME280;5176;42.622;25.386;2023-04-05T22:03:59;96883.50;;;7.65;77.96
9439;BME280;5176;42.622;25.386;2023-04-05T22:06:30;96880.41;;;7.58;77.23
9439;BME280;5176;42.622;25.386;2023-04-05T22:08:58;96862.22;;;7.43;76.47
9439;BME280;5176;42.622;25.386;2023-04-05T22:11:27;96876.78;;;7.61;77.41
9439;BME280;5176;42.622;25.386;2023-04-05T22:13:56;96876.03;;;7.59;77.94
9439;BME280;5176;42.622;25.386;2023-04-05T22:16:25;96873.53;;;7.57;78.57
9439;BME280;5176;42.622;25.386;2023-04-05T22:18:54;96873.63;;;7.56;78.43
9439;BME280;5176;42.622;25.386;2023-04-05T22:21:22;96871.00;;;7.56;78.10
9439;BME280;5176;42.622;25.386;2023-04-05T22:23:55;96868.91;;;7.62;79.18
9439;BME280;5176;42.622;25.386;2023-04-05T22:26:24;96869.97;;;7.58;79.62
9439;BME280;5176;42.622;25.386;2023-04-05T22:28:52;96874.81;;;7.50;83.39
9439;BME280;5176;42.622;25.386;2023-04-05T22:31:21;96874.81;;;7.50;87.29
9439;BME280;5176;42.622;25.386;2023-04-05T22:33:50;96874.47;;;7.41;88.56
9439;BME280;5176;42.622;25.386;2023-04-05T22:36:19;96838.94;;;7.24;90.19
9439;BME280;5176;42.622;25.386;2023-04-05T22:38:47;96868.06;;;7.46;90.83
9439;BME280;5176;42.622;25.386;2023-04-05T22:41:18;96865.22;;;7.51;90.15
9439;BME280;5176;42.622;25.386;2023-04-05T22:43:47;96865.59;;;7.29;89.42
9439;BME280;5176;42.622;25.386;2023-04-05T22:46:16;96868.38;;;7.26;90.26
9439;BME280;5176;42.622;25.386;2023-04-05T22:48:45;96868.81;;;7.18;90.15
9439;BME280;5176;42.622;25.386;2023-04-05T22:51:14;96866.56;;;6.96;91.84
9439;BME280;5176;42.622;25.386;2023-04-05T22:53:43;96866.94;;;6.89;92.55
9439;BME280;5176;42.622;25.386;2023-04-05T22:56:13;96864.34;;;6.73;92.75
9439;BME280;5176;42.622;25.386;2023-04-05T22:58:45;96879.56;;;6.65;93.90
9439;BME280;5176;42.622;25.386;2023-04-05T23:01:13;96868.22;;;6.66;95.09
9439;BME280;5176;42.622;25.386;2023-04-05T23:03:43;96866.13;;;6.72;95.86
9439;BME280;5176;42.622;25.386;2023-04-05T23:06:12;96867.47;;;6.64;95.13
9439;BME280;5176;42.622;25.386;2023-04-05T23:08:42;96862.81;;;6.53;95.89
9439;BME280;5176;42.622;25.386;2023-04-05T23:11:11;96859.88;;;6.43;96.61
9439;BME280;5176;42.622;25.386;2023-04-05T23:13:39;96867.09;;;6.38;97.41
9439;BME280;5176;42.622;25.386;2023-04-05T23:16:10;96861.38;;;6.47;97.78
9439;BME280;5176;42.622;25.386;2023-04-05T23:18:38;96860.06;;;6.56;96.95
9439;BME280;5176;42.622;25.386;2023-04-05T23:21:07;96853.84;;;6.43;96.67
9439;BME280;5176;42.622;25.386;2023-04-05T23:23:34;96851.81;;;6.48;97.35
9439;BME280;5176;42.622;25.386;2023-04-05T23:26:03;96850.91;;;6.49;98.24
9439;BME280;5176;42.622;25.386;2023-04-05T23:28:32;96838.28;;;6.41;97.16
9439;BME280;5176;42.622;25.386;2023-04-05T23:31:01;96849.28;;;6.46;96.83
9439;BME280;5176;42.622;25.386;2023-04-05T23:33:31;96850.66;;;6.53;97.33
9439;BME280;5176;42.622;25.386;2023-04-05T23:36:00;96804.94;;;6.32;98.07
9439;BME280;5176;42.622;25.386;2023-04-05T23:38:29;96814.78;;;6.43;96.81
9439;BME280;5176;42.622;25.386;2023-04-05T23:40:58;96844.84;;;6.48;96.63
9439;BME280;5176;42.622;25.386;2023-04-05T23:43:27;96842.50;;;6.44;97.26
9439;BME280;5176;42.622;25.386;2023-04-05T23:45:55;96806.94;;;6.27;97.85
9439;BME280;5176;42.622;25.386;2023-04-05T23:48:24;96840.41;;;6.50;96.70
9439;BME280;5176;42.622;25.386;2023-04-05T23:50:54;96804.25;;;6.28;96.32
9439;BME280;5176;42.622;25.386;2023-04-05T23:53:23;96829.06;;;6.36;97.18
9439;BME280;5176;42.622;25.386;2023-04-05T23:55:53;96819.94;;;6.27;98.91
9439;BME280;5176;42.622;25.386;2023-04-05T23:58:23;96817.44;;;6.41;99.83
